createdAt,value
2022-12-04T00:01:26.616Z,2.69
2022-12-04T00:03:56.399Z,2.69
2022-12-04T00:06:25.149Z,2.69
2022-12-04T00:08:53.504Z,2.71
2022-12-04T00:11:24.220Z,2.73
2022-12-04T00:13:52.141Z,2.78
2022-12-04T00:16:23.281Z,2.85
2022-12-04T00:18:51.512Z,2.89
2022-12-04T00:21:20.445Z,2.96
2022-12-04T00:23:48.638Z,3.08
2022-12-04T00:26:19.545Z,3.20
2022-12-04T00:28:47.489Z,3.30
2022-12-04T00:31:18.057Z,3.42
2022-12-04T00:33:46.334Z,3.53
2022-12-04T00:36:16.363Z,3.62
2022-12-04T00:38:44.823Z,3.70
2022-12-04T00:41:14.758Z,3.77
2022-12-04T00:43:42.715Z,3.81
2022-12-04T00:46:10.482Z,3.87
2022-12-04T00:48:38.545Z,3.90
2022-12-04T00:51:08.715Z,3.96
2022-12-04T00:53:36.951Z,3.97
2022-12-04T00:56:06.499Z,3.98
2022-12-04T00:58:34.276Z,3.97
2022-12-04T01:01:14.426Z,3.96
2022-12-04T01:03:43.275Z,3.92
2022-12-04T01:06:30.845Z,3.93
2022-12-04T01:09:00.246Z,3.96
2022-12-04T01:11:29.833Z,3.99
2022-12-04T01:13:58.156Z,4.02
2022-12-04T01:16:29.762Z,4.03
2022-12-04T01:18:57.432Z,3.99
2022-12-04T01:21:25.105Z,3.92
2022-12-04T01:23:52.797Z,3.83
2022-12-04T01:26:20.592Z,3.74
2022-12-04T01:28:48.308Z,3.65
2022-12-04T01:31:18.939Z,3.59
2022-12-04T01:33:47.335Z,3.56
2022-12-04T01:36:24.265Z,3.56
2022-12-04T01:38:52.334Z,3.57
2022-12-04T01:41:24.472Z,3.62
2022-12-04T01:44:16.441Z,3.68
2022-12-04T01:46:46.950Z,3.73
2022-12-04T01:49:33.108Z,3.75
2022-12-04T01:52:28.952Z,3.82
2022-12-04T01:55:00.848Z,3.86
2022-12-04T01:57:32.506Z,3.83
2022-12-04T02:00:11.785Z,3.78
2022-12-04T02:02:45.727Z,3.71
2022-12-04T02:05:16.863Z,3.66
2022-12-04T02:07:47.466Z,3.60
2022-12-04T02:10:17.302Z,3.56
2022-12-04T02:13:23.451Z,3.51
2022-12-04T02:16:06.303Z,3.49
2022-12-04T02:18:52.221Z,3.50
2022-12-04T02:21:45.793Z,3.56
2022-12-04T02:24:33.886Z,3.63
2022-12-04T02:27:05.652Z,3.70
2022-12-04T02:29:57.817Z,3.77
2022-12-04T02:33:04.444Z,3.83
2022-12-04T02:35:39.934Z,3.86
2022-12-04T02:38:31.789Z,3.92
2022-12-04T02:41:22.196Z,3.97
2022-12-04T02:43:55.480Z,4.02
2022-12-04T02:46:33.686Z,4.05
2022-12-04T02:49:04.709Z,4.06
2022-12-04T02:51:35.423Z,4.07
2022-12-04T02:54:21.573Z,4.02
2022-12-04T02:56:51.993Z,3.92
2022-12-04T02:59:35.881Z,3.80
2022-12-04T03:02:12.449Z,3.68
2022-12-04T03:04:42.572Z,3.57
2022-12-04T03:07:15.022Z,3.46
2022-12-04T03:09:54.746Z,3.37
2022-12-04T03:12:39.482Z,3.30
2022-12-04T03:15:29.661Z,3.21
2022-12-04T03:18:10.292Z,3.17
2022-12-04T03:20:39.512Z,3.19
2022-12-04T03:23:14.803Z,3.23
2022-12-04T03:26:06.615Z,3.30
2022-12-04T03:28:46.943Z,3.37
2022-12-04T03:31:17.040Z,3.43
2022-12-04T03:33:47.872Z,3.50
2022-12-04T03:36:21.570Z,3.55
2022-12-04T03:39:08.598Z,3.59
2022-12-04T03:41:57.975Z,3.60
2022-12-04T03:44:44.052Z,3.62
2022-12-04T03:47:30.241Z,3.66
2022-12-04T03:50:02.960Z,3.71
2022-12-04T03:53:00.248Z,3.75
2022-12-04T03:55:35.348Z,3.79
2022-12-04T03:58:09.489Z,3.84
2022-12-04T04:00:41.430Z,3.86
2022-12-04T04:03:31.737Z,3.91
2022-12-04T04:06:07.845Z,3.95
2022-12-04T04:08:40.035Z,3.95
2022-12-04T04:11:17.141Z,3.94
2022-12-04T04:14:15.825Z,3.85
2022-12-04T04:17:08.510Z,3.75
2022-12-04T04:19:58.596Z,3.71
2022-12-04T04:22:45.731Z,3.65
2022-12-04T04:25:18.242Z,3.63
2022-12-04T04:27:57.396Z,3.69
2022-12-04T04:30:26.721Z,3.73
2022-12-04T04:33:06.348Z,3.81
2022-12-04T04:35:44.292Z,3.89
2022-12-04T04:38:11.758Z,3.96
2022-12-04T04:40:54.567Z,4.03
2022-12-04T04:43:40.034Z,4.08
2022-12-04T04:46:17.352Z,4.13
2022-12-04T04:48:49.086Z,4.16
2022-12-04T04:51:17.975Z,4.18
2022-12-04T04:53:55.772Z,4.20
2022-12-04T04:56:23.685Z,4.20
2022-12-04T04:58:51.256Z,4.21
2022-12-04T05:01:22.616Z,4.21
2022-12-04T05:03:50.337Z,4.20
2022-12-04T05:06:18.291Z,4.18
2022-12-04T05:08:46.482Z,4.16
2022-12-04T05:11:16.125Z,4.16
2022-12-04T05:13:44.131Z,4.17
2022-12-04T05:16:14.388Z,4.16
2022-12-04T05:19:02.611Z,4.17
2022-12-04T05:21:30.496Z,4.17
2022-12-04T05:23:58.171Z,4.18
2022-12-04T05:26:26.464Z,4.18
2022-12-04T05:28:53.996Z,4.17
2022-12-04T05:31:21.582Z,4.16
2022-12-04T05:33:49.238Z,4.16
2022-12-04T05:36:16.887Z,4.16
2022-12-04T05:38:44.457Z,4.15
2022-12-04T05:41:12.016Z,4.15
2022-12-04T05:43:39.549Z,4.16
2022-12-04T05:46:08.840Z,4.18
2022-12-04T05:48:36.619Z,4.18
2022-12-04T05:51:08.484Z,4.18
2022-12-04T05:53:36.722Z,4.19
2022-12-04T05:56:05.551Z,4.20
2022-12-04T05:58:37.992Z,4.20
2022-12-04T06:01:20.758Z,4.23
2022-12-04T06:03:48.381Z,4.26
2022-12-04T06:06:21.711Z,4.25
2022-12-04T06:08:51.687Z,4.25
2022-12-04T06:11:26.244Z,4.22
2022-12-04T06:13:54.294Z,4.21
2022-12-04T06:16:28.340Z,4.18
2022-12-04T06:18:59.389Z,4.19
2022-12-04T06:21:30.519Z,4.21
2022-12-04T06:23:58.372Z,4.23
2022-12-04T06:26:27.319Z,4.25
2022-12-04T06:28:59.054Z,4.27
2022-12-04T06:31:28.997Z,4.27
2022-12-04T06:33:58.038Z,4.26
2022-12-04T06:36:25.704Z,4.26
2022-12-04T06:38:56.036Z,4.29
2022-12-04T06:41:25.312Z,4.29
2022-12-04T06:43:53.198Z,4.31
2022-12-04T06:46:26.158Z,4.32
2022-12-04T06:48:55.761Z,4.33
2022-12-04T06:51:28.985Z,4.35
2022-12-04T06:53:56.957Z,4.35
2022-12-04T06:56:27.629Z,4.35
2022-12-04T06:58:57.321Z,4.32
2022-12-04T07:01:27.919Z,4.24
2022-12-04T07:03:57.175Z,4.18
2022-12-04T07:06:26.275Z,4.14
2022-12-04T07:08:58.280Z,4.12
2022-12-04T07:11:26.251Z,4.12
2022-12-04T07:13:55.300Z,4.09
2022-12-04T07:16:24.790Z,4.10
2022-12-04T07:18:56.731Z,4.06
2022-12-04T07:21:27.698Z,4.02
2022-12-04T07:23:58.511Z,3.96
2022-12-04T07:26:28.564Z,3.91
2022-12-04T07:28:57.127Z,3.87
2022-12-04T07:31:26.243Z,3.82
2022-12-04T07:33:54.696Z,3.78
2022-12-04T07:36:24.819Z,3.75
2022-12-04T07:38:52.503Z,3.73
2022-12-04T07:41:20.178Z,3.72
2022-12-04T07:43:48.351Z,3.71
2022-12-04T07:46:19.192Z,3.68
2022-12-04T07:48:47.131Z,3.65
2022-12-04T07:51:17.955Z,3.62
2022-12-04T07:53:46.255Z,3.57
2022-12-04T07:56:14.643Z,3.54
2022-12-04T07:58:42.963Z,3.48
2022-12-04T08:01:21.144Z,3.44
2022-12-04T08:03:51.391Z,3.40
2022-12-04T08:06:21.375Z,3.36
2022-12-04T08:08:49.977Z,3.33
2022-12-04T08:11:22.312Z,3.31
2022-12-04T08:13:55.777Z,3.29
2022-12-04T08:16:24.190Z,3.30
2022-12-04T08:18:53.156Z,3.31
2022-12-04T08:21:23.788Z,3.33
2022-12-04T08:23:53.538Z,3.38
2022-12-04T08:26:23.239Z,3.47
2022-12-04T08:28:54.504Z,3.60
2022-12-04T08:31:25.649Z,3.72
2022-12-04T08:33:56.996Z,3.81
2022-12-04T08:36:25.106Z,3.88
2022-12-04T08:38:53.065Z,3.92
2022-12-04T08:41:24.078Z,3.92
2022-12-04T08:43:54.883Z,3.90
2022-12-04T08:46:23.670Z,3.87
2022-12-04T08:48:51.567Z,3.83
2022-12-04T08:51:23.491Z,3.81
2022-12-04T08:53:56.557Z,3.80
2022-12-04T08:56:24.941Z,3.80
2022-12-04T08:58:52.502Z,3.78
2022-12-04T09:01:20.205Z,3.79
2022-12-04T09:03:47.895Z,3.79
2022-12-04T09:06:16.334Z,3.80
2022-12-04T09:08:44.260Z,3.82
2022-12-04T09:11:18.150Z,3.84
2022-12-04T09:13:46.304Z,3.89
2022-12-04T09:16:17.121Z,3.97
2022-12-04T09:18:45.242Z,4.08
2022-12-04T09:21:16.105Z,4.20
2022-12-04T09:23:44.071Z,4.31
2022-12-04T09:26:26.596Z,4.41
2022-12-04T09:28:55.694Z,4.45
2022-12-04T09:31:24.430Z,4.43
2022-12-04T09:33:53.122Z,4.38
2022-12-04T09:36:21.077Z,4.38
2022-12-04T09:38:51.095Z,4.38
2022-12-04T09:41:34.064Z,4.38
2022-12-04T09:44:15.461Z,4.39
2022-12-04T09:46:51.269Z,4.41
2022-12-04T09:49:46.472Z,4.44
2022-12-04T09:52:35.559Z,4.47
2022-12-04T09:55:05.575Z,4.47
2022-12-04T09:57:48.830Z,4.49
2022-12-04T10:00:19.602Z,4.51
2022-12-04T10:03:04.015Z,4.51
2022-12-04T10:05:53.027Z,4.54
2022-12-04T10:08:35.379Z,4.57
2022-12-04T10:11:12.459Z,4.62
2022-12-04T10:14:06.421Z,4.66
2022-12-04T10:17:12.663Z,4.74
2022-12-04T10:19:46.029Z,4.82
2022-12-04T10:22:22.503Z,4.87
2022-12-04T10:25:15.318Z,4.95
2022-12-04T10:27:47.437Z,5.21
2022-12-04T10:30:22.488Z,5.82
2022-12-04T10:32:57.252Z,6.82
2022-12-04T10:35:29.647Z,7.65
2022-12-04T10:38:02.149Z,8.51
2022-12-04T10:40:49.132Z,9.26
2022-12-04T10:43:28.489Z,9.83
2022-12-04T10:45:56.050Z,9.79
2022-12-04T10:48:32.615Z,9.19
2022-12-04T10:51:00.330Z,8.42
2022-12-04T10:53:35.352Z,7.84
2022-12-04T10:56:23.006Z,7.45
2022-12-04T10:59:02.302Z,7.17
2022-12-04T11:01:32.637Z,7.00
2022-12-04T11:04:08.290Z,6.89
2022-12-04T11:06:36.173Z,6.80
2022-12-04T11:09:04.688Z,6.91
2022-12-04T11:11:35.909Z,7.28
2022-12-04T11:14:13.017Z,7.40
2022-12-04T11:16:44.836Z,7.42
2022-12-04T11:19:38.734Z,7.27
2022-12-04T11:22:19.356Z,7.05
2022-12-04T11:24:54.759Z,6.87
2022-12-04T11:27:28.425Z,6.74
2022-12-04T11:29:56.906Z,6.73
2022-12-04T11:32:28.709Z,6.71
2022-12-04T11:35:12.382Z,6.70
2022-12-04T11:37:45.128Z,6.66
2022-12-04T11:40:18.569Z,6.63
2022-12-04T11:42:59.701Z,6.52
2022-12-04T11:45:27.265Z,6.50
2022-12-04T11:48:02.249Z,6.50
2022-12-04T11:50:42.632Z,6.51
2022-12-04T11:53:24.294Z,6.57
2022-12-04T11:56:35.526Z,6.57
2022-12-04T11:59:18.282Z,6.53
2022-12-04T12:02:04.390Z,6.52
2022-12-04T12:04:50.737Z,6.48
2022-12-04T12:07:42.970Z,6.45
2022-12-04T12:10:16.586Z,6.43
2022-12-04T12:13:05.733Z,6.43
2022-12-04T12:15:55.241Z,6.37
2022-12-04T12:18:25.520Z,6.36
2022-12-04T12:21:06.013Z,6.38
2022-12-04T12:23:52.268Z,6.45
2022-12-04T12:26:20.255Z,6.66
2022-12-04T12:29:03.737Z,6.75
2022-12-04T12:31:52.976Z,6.85
2022-12-04T12:34:37.542Z,7.03
2022-12-04T12:37:31.103Z,7.53
2022-12-04T12:40:12.974Z,8.40
2022-12-04T12:42:58.445Z,8.95
2022-12-04T12:46:00.788Z,8.75
2022-12-04T12:48:46.680Z,8.61
2022-12-04T12:51:36.677Z,8.41
2022-12-04T12:54:38.152Z,8.19
2022-12-04T12:57:37.638Z,7.88
2022-12-04T13:00:13.359Z,7.67
2022-12-04T13:03:03.801Z,7.53
2022-12-04T13:05:37.767Z,7.39
2022-12-04T13:08:25.977Z,7.20
2022-12-04T13:10:53.508Z,7.12
2022-12-04T13:13:26.160Z,7.02
2022-12-04T13:16:05.809Z,7.00
2022-12-04T13:18:49.823Z,6.97
2022-12-04T13:21:38.739Z,6.95
2022-12-04T13:24:26.518Z,6.97
2022-12-04T13:27:08.560Z,6.91
2022-12-04T13:30:03.873Z,6.89
2022-12-04T13:32:53.660Z,6.84
2022-12-04T13:35:56.228Z,6.71
2022-12-04T13:38:33.111Z,6.60
2022-12-04T13:41:04.530Z,6.52
2022-12-04T13:43:37.344Z,6.48
2022-12-04T13:46:07.413Z,6.43
2022-12-04T13:48:41.326Z,6.39
2022-12-04T13:51:15.128Z,6.36
2022-12-04T13:53:44.019Z,6.36
2022-12-04T13:56:45.861Z,6.30
2022-12-04T13:59:28.539Z,6.25
2022-12-04T14:02:07.769Z,6.31
2022-12-04T14:04:52.655Z,6.55
2022-12-04T14:07:33.690Z,6.81
2022-12-04T14:10:27.572Z,6.80
2022-12-04T14:13:21.431Z,6.71
2022-12-04T14:16:02.809Z,6.61
2022-12-04T14:18:31.072Z,6.47
2022-12-04T14:21:05.505Z,6.40
2022-12-04T14:23:36.991Z,6.32
2022-12-04T14:26:05.859Z,6.26
2022-12-04T14:28:41.739Z,6.21
2022-12-04T14:31:35.561Z,6.16
2022-12-04T14:34:22.942Z,6.12
2022-12-04T14:36:53.887Z,6.14
2022-12-04T14:39:26.153Z,6.19
2022-12-04T14:42:04.036Z,6.25
2022-12-04T14:44:32.292Z,6.32
2022-12-04T14:47:26.961Z,6.35
2022-12-04T14:50:39.454Z,6.39
2022-12-04T14:53:21.249Z,6.41
2022-12-04T14:56:07.704Z,6.38
2022-12-04T14:58:38.454Z,6.36
2022-12-04T15:01:29.407Z,6.39
2022-12-04T15:04:01.554Z,6.40
2022-12-04T15:06:32.531Z,6.38
2022-12-04T15:09:20.808Z,6.41
2022-12-04T15:12:09.386Z,6.38
2022-12-04T15:14:50.462Z,6.36
2022-12-04T15:17:18.793Z,6.34
2022-12-04T15:19:46.408Z,6.33
2022-12-04T15:22:26.409Z,6.27
2022-12-04T15:24:55.582Z,6.26
2022-12-04T15:27:31.928Z,6.21
2022-12-04T15:30:02.390Z,6.17
2022-12-04T15:32:32.131Z,6.15
2022-12-04T15:35:09.327Z,6.14
2022-12-04T15:37:37.218Z,6.12
2022-12-04T15:40:08.823Z,6.15
2022-12-04T15:42:36.344Z,6.17
2022-12-04T15:45:09.793Z,6.16
2022-12-04T15:47:50.580Z,6.11
2022-12-04T15:50:18.103Z,6.02
2022-12-04T15:53:00.808Z,5.91
2022-12-04T15:55:31.766Z,5.82
2022-12-04T15:58:03.528Z,5.77
2022-12-04T16:00:40.423Z,5.74
2022-12-04T16:03:31.316Z,5.75
2022-12-04T16:06:07.693Z,5.80
2022-12-04T16:08:38.669Z,5.79
2022-12-04T16:11:28.932Z,5.80
2022-12-04T16:14:05.163Z,5.80
2022-12-04T16:16:33.114Z,5.80
2022-12-04T16:19:09.874Z,5.80
2022-12-04T16:21:37.407Z,5.77
2022-12-04T16:24:06.900Z,5.79
2022-12-04T16:26:34.586Z,5.82
2022-12-04T16:29:02.201Z,5.84
2022-12-04T16:31:29.991Z,5.85
2022-12-04T16:33:57.662Z,5.88
2022-12-04T16:36:25.335Z,5.91
2022-12-04T16:38:53.058Z,5.90
2022-12-04T16:41:21.761Z,5.86
2022-12-04T16:44:02.817Z,5.81
2022-12-04T16:46:30.522Z,5.74
2022-12-04T16:49:02.729Z,5.68
2022-12-04T16:51:33.851Z,5.67
2022-12-04T16:54:01.345Z,5.64
2022-12-04T16:56:28.908Z,5.65
2022-12-04T16:58:56.427Z,5.63
2022-12-04T17:01:27.288Z,5.63
2022-12-04T17:03:54.972Z,5.59
2022-12-04T17:06:22.590Z,5.55
2022-12-04T17:08:50.186Z,5.50
2022-12-04T17:11:18.741Z,5.43
2022-12-04T17:13:46.607Z,5.37
2022-12-04T17:16:15.329Z,5.33
2022-12-04T17:18:43.963Z,5.29
2022-12-04T17:21:13.689Z,5.29
2022-12-04T17:23:41.831Z,5.28
2022-12-04T17:26:11.992Z,5.29
2022-12-04T17:28:39.934Z,5.27
2022-12-04T17:31:18.025Z,5.22
2022-12-04T17:33:46.599Z,5.14
2022-12-04T17:36:16.596Z,5.07
2022-12-04T17:38:44.851Z,5.00
2022-12-04T17:41:14.187Z,4.97
2022-12-04T17:43:43.102Z,4.91
2022-12-04T17:46:13.481Z,4.85
2022-12-04T17:48:41.522Z,4.79
2022-12-04T17:51:15.235Z,4.75
2022-12-04T17:53:43.229Z,4.72
2022-12-04T17:56:20.406Z,4.74
2022-12-04T17:58:48.809Z,4.82
2022-12-04T18:01:20.286Z,4.92
2022-12-04T18:03:52.935Z,5.04
2022-12-04T18:06:24.098Z,5.12
2022-12-04T18:08:52.518Z,5.19
2022-12-04T18:11:21.866Z,5.23
2022-12-04T18:13:54.660Z,5.27
2022-12-04T18:16:22.311Z,5.28
2022-12-04T18:18:50.913Z,5.25
2022-12-04T18:21:18.988Z,5.19
2022-12-04T18:23:46.567Z,5.17
2022-12-04T18:26:20.685Z,5.11
2022-12-04T18:28:49.988Z,5.12
2022-12-04T18:31:19.307Z,5.14
2022-12-04T18:33:47.922Z,5.13
2022-12-04T18:36:21.904Z,5.12
2022-12-04T18:39:05.404Z,5.12
2022-12-04T18:41:33.133Z,5.13
2022-12-04T18:44:00.877Z,5.16
2022-12-04T18:46:29.039Z,5.19
2022-12-04T18:48:59.123Z,5.21
2022-12-04T18:51:31.887Z,5.20
2022-12-04T18:54:02.721Z,5.20
2022-12-04T18:56:32.583Z,5.21
2022-12-04T18:59:02.984Z,5.24
2022-12-04T19:01:33.569Z,5.26
2022-12-04T19:04:04.168Z,5.29
2022-12-04T19:06:34.884Z,5.35
2022-12-04T19:09:07.369Z,5.39
2022-12-04T19:11:35.457Z,5.45
2022-12-04T19:14:08.270Z,5.49
2022-12-04T19:16:40.286Z,5.54
2022-12-04T19:19:09.088Z,5.58
2022-12-04T19:21:36.739Z,5.61
2022-12-04T19:24:04.648Z,5.64
2022-12-04T19:26:34.165Z,5.68
2022-12-04T19:29:02.590Z,5.71
2022-12-04T19:31:33.115Z,5.72
2022-12-04T19:34:01.157Z,5.74
2022-12-04T19:36:30.632Z,5.76
2022-12-04T19:38:59.006Z,5.75
2022-12-04T19:41:30.992Z,5.77
2022-12-04T19:44:00.389Z,5.77
2022-12-04T19:46:30.721Z,5.77
2022-12-04T19:49:02.111Z,5.79
2022-12-04T19:51:34.149Z,5.77
2022-12-04T19:54:02.023Z,5.79
2022-12-04T19:56:31.755Z,5.80
2022-12-04T19:59:03.157Z,5.79
2022-12-04T20:01:32.372Z,5.78
2022-12-04T20:04:02.767Z,5.78
2022-12-04T20:06:35.168Z,5.75
2022-12-04T20:09:06.621Z,5.70
2022-12-04T20:11:34.637Z,5.64
2022-12-04T20:14:03.503Z,5.58
2022-12-04T20:16:33.270Z,5.54
2022-12-04T20:19:03.619Z,5.50
2022-12-04T20:21:32.561Z,5.46
2022-12-04T20:24:05.533Z,5.44
2022-12-04T20:27:37.316Z,5.42
2022-12-04T20:30:05.922Z,5.40
2022-12-04T20:32:33.795Z,5.37
2022-12-04T20:35:01.440Z,5.33
2022-12-04T20:37:28.940Z,5.29
2022-12-04T20:39:56.877Z,5.25
2022-12-04T20:42:28.652Z,5.21
2022-12-04T20:44:59.459Z,5.21
2022-12-04T20:47:28.225Z,5.22
2022-12-04T20:49:55.952Z,5.24
2022-12-04T20:52:23.672Z,5.29
2022-12-04T20:54:51.288Z,5.35
2022-12-04T20:57:18.998Z,5.41
2022-12-04T20:59:46.560Z,5.45
2022-12-04T21:02:14.400Z,5.49
2022-12-04T21:04:41.985Z,5.55
2022-12-04T21:07:09.667Z,5.58
2022-12-04T21:09:37.373Z,5.64
2022-12-04T21:12:25.134Z,5.66
2022-12-04T21:15:11.067Z,5.68
2022-12-04T21:17:38.682Z,5.71
2022-12-04T21:20:08.300Z,5.72
2022-12-04T21:22:36.380Z,5.72
2022-12-04T21:25:04.686Z,5.70
2022-12-04T21:27:32.250Z,5.68
2022-12-04T21:29:59.990Z,5.65
2022-12-04T21:32:27.851Z,5.58
2022-12-04T21:34:55.373Z,5.50
2022-12-04T21:37:23.001Z,5.42
2022-12-04T21:39:50.566Z,5.34
2022-12-04T21:42:30.330Z,5.27
2022-12-04T21:44:59.382Z,5.19
2022-12-04T21:47:27.601Z,5.13
2022-12-04T21:49:55.592Z,5.11
2022-12-04T21:52:24.469Z,5.12
2022-12-04T21:54:53.414Z,5.13
2022-12-04T21:57:21.842Z,5.16
2022-12-04T21:59:52.170Z,5.16
2022-12-04T22:02:20.660Z,5.20
2022-12-04T22:04:48.708Z,5.19
2022-12-04T22:07:16.277Z,5.17
2022-12-04T22:09:43.869Z,5.16
2022-12-04T22:12:33.250Z,5.14
2022-12-04T22:14:59.044Z,5.12
2022-12-04T22:17:29.646Z,5.09
2022-12-04T22:19:57.504Z,5.06
2022-12-04T22:22:25.158Z,5.06
2022-12-04T22:24:52.762Z,5.08
2022-12-04T22:27:20.282Z,5.10
2022-12-04T22:29:50.885Z,5.15
2022-12-04T22:32:20.120Z,5.20
2022-12-04T22:34:49.217Z,5.23
2022-12-04T22:37:17.274Z,5.26
2022-12-04T22:39:44.809Z,5.31
2022-12-04T22:42:12.345Z,5.33
2022-12-04T22:44:39.857Z,5.36
2022-12-04T22:47:07.497Z,5.38
2022-12-04T22:49:35.115Z,5.35
2022-12-04T22:52:02.753Z,5.33
2022-12-04T22:54:30.340Z,5.31
2022-12-04T22:56:57.876Z,5.28
2022-12-04T22:59:25.364Z,5.27
2022-12-04T23:01:52.943Z,5.25
2022-12-04T23:04:20.413Z,5.21
2022-12-04T23:06:47.988Z,5.19
2022-12-04T23:09:17.080Z,5.16
2022-12-04T23:11:45.218Z,5.16
2022-12-04T23:14:14.762Z,5.15
2022-12-04T23:16:42.949Z,5.13
2022-12-04T23:19:15.561Z,5.10
2022-12-04T23:21:43.968Z,5.05
2022-12-04T23:24:12.333Z,5.01
2022-12-04T23:26:43.147Z,4.97
2022-12-04T23:29:37.067Z,4.93
2022-12-04T23:31:59.313Z,4.89
2022-12-04T23:34:26.990Z,4.86
2022-12-04T23:36:54.554Z,4.86
2022-12-04T23:39:22.180Z,4.86
2022-12-04T23:41:49.840Z,4.89
2022-12-04T23:44:17.380Z,4.91
2022-12-04T23:46:45.489Z,4.89
2022-12-04T23:49:13.072Z,4.87
2022-12-04T23:51:40.665Z,4.84
2022-12-04T23:54:08.196Z,4.77
2022-12-04T23:56:35.904Z,4.72
2022-12-04T23:59:03.650Z,4.71
